Terminal Aerodrome Forecast
Issued by NWS Glasgow, MT

Home | Current Version | Previous Version | Text Only | Print | Product List | Glossary On
Versions: 1 2 3 4 5 6 7 8 9 10 11 12 13
000
FTUS45 KGGW 070500
TAFGGW
TAF
KGGW 070520Z 0706/0806 33011KT P6SM SCT200
     FM071000 33011KT P6SM BKN020
     FM071800 32015KT P6SM SCT030 BKN200
     FM080200 04006KT P6SM BKN120=

USA.gov is the U.S. government's official web portal to all federal, state and local government web resources and services.